Time;durP1;ratioP1;P1;durP2;ratioP2;P2;SDS_P1;SDS_P2;PMS_P1;PMS_P2;Temp;Humidity;BMP_temperature;BMP_pressure;BME280_temperature;BME280_humidity;BME280_pressure;Samples;Min_cycle;Max_cycle;Signal;HPM_P1;HPM_P2
2022/02/19 00:00:16;;;;;;;75.20;8.75;;;7.10;30.00;;;;;;4883851;29;20187;-85
2022/02/19 00:05:40;;;;;;;69.25;8.20;;;7.10;34.10;;;;;;4883921;29;20198;-86
2022/02/19 00:08:06;;;;;;;73.53;16.60;;;7.10;31.40;;;;;;4885763;29;20178;-85
2022/02/19 00:10:35;;;;;;;70.75;8.85;;;7.10;31.70;;;;;;4885428;29;20167;-86
2022/02/19 00:13:12;;;;;;;75.93;15.30;;;7.10;33.10;;;;;;4885574;29;20182;-85
2022/02/19 00:15:40;;;;;;;74.35;13.18;;;7.10;33.30;;;;;;4883384;29;20213;-85
2022/02/19 00:18:11;;;;;;;76.07;18.27;;;7.10;35.10;;;;;;4884654;29;20170;-86
2022/02/19 00:20:53;;;;;;;71.60;7.82;;;7.00;37.00;;;;;;4883462;29;20175;-85
2022/02/19 00:23:19;;;;;;;70.82;11.45;;;7.10;38.70;;;;;;4883280;29;20207;-85
2022/02/19 00:25:46;;;;;;;72.17;13.30;;;7.00;37.20;;;;;;4883675;29;20233;-85
2022/02/19 00:28:24;;;;;;;70.85;7.13;;;7.00;37.00;;;;;;4885042;29;20719;-86
2022/02/19 00:31:08;;;;;;;69.90;7.72;;;7.00;36.90;;;;;;4883630;29;20194;-86
2022/02/19 00:33:55;;;;;;;66.20;7.28;;;7.00;31.90;;;;;;4885068;29;20174;-85
2022/02/19 00:36:21;;;;;;;70.70;7.75;;;7.00;33.90;;;;;;4885471;29;20198;-85
2022/02/19 00:38:49;;;;;;;68.05;7.55;;;7.00;34.30;;;;;;4885834;29;20178;-85
2022/02/19 00:41:20;;;;;;;75.40;10.00;;;6.90;31.90;;;;;;4884472;29;20558;-85
2022/02/19 00:43:46;;;;;;;74.85;15.85;;;6.90;32.40;;;;;;4883988;29;20187;-85
2022/02/19 00:46:15;;;;;;;68.57;8.50;;;6.90;32.00;;;;;;4884738;29;20582;-85
2022/02/19 00:48:46;;;;;;;71.20;8.13;;;6.90;33.10;;;;;;4885379;29;20174;-85
2022/02/19 00:51:17;;;;;;;73.05;11.32;;;6.80;30.80;;;;;;4884550;29;20163;-85
2022/02/19 00:53:43;;;;;;;76.35;10.80;;;6.80;32.40;;;;;;4883837;29;20181;-86
2022/02/19 00:56:15;;;;;;;74.60;14.63;;;6.80;28.80;;;;;;4883775;29;20194;-85
2022/02/19 00:58:44;;;;;;;67.63;8.70;;;6.80;29.70;;;;;;4884329;29;20415;-85
2022/02/19 01:01:30;;;;;;;72.22;8.25;;;6.80;30.60;;;;;;4884669;29;20270;-85
2022/02/19 01:04:16;;;;;;;77.38;15.85;;;6.80;33.40;;;;;;4883719;29;20234;-85
2022/02/19 01:06:44;;;;;;;86.72;32.00;;;6.80;35.70;;;;;;4884100;29;20206;-85
2022/02/19 01:09:16;;;;;;;69.13;7.82;;;6.90;36.10;;;;;;4885746;29;20226;-85
2022/02/19 01:11:44;;;;;;;82.68;24.92;;;6.90;39.90;;;;;;4883932;29;20173;-85
2022/02/19 01:14:15;;;;;;;71.78;12.13;;;6.90;38.30;;;;;;4884155;29;20215;-85
2022/02/19 01:16:48;;;;;;;70.50;8.40;;;6.90;38.50;;;;;;4885219;29;20190;-86
2022/02/19 01:19:19;;;;;;;78.03;7.28;;;6.80;41.20;;;;;;4885815;29;20202;-86
2022/02/19 01:21:47;;;;;;;77.63;7.57;;;6.80;40.10;;;;;;4885674;29;20214;-85
2022/02/19 01:24:15;;;;;;;70.88;7.50;;;6.80;39.80;;;;;;4884771;29;20175;-85
2022/02/19 01:26:41;;;;;;;68.75;9.82;;;6.80;40.40;;;;;;4884500;29;20194;-85
2022/02/19 01:29:09;;;;;;;72.23;10.67;;;6.80;38.20;;;;;;4885056;29;20574;-85
2022/02/19 01:31:35;;;;;;;67.53;9.18;;;6.80;37.50;;;;;;4883891;29;20182;-85
2022/02/19 01:34:03;;;;;;;68.43;11.33;;;6.80;32.90;;;;;;4883608;29;20209;-85
2022/02/19 01:36:33;;;;;;;70.55;8.60;;;6.70;32.20;;;;;;4885607;29;20194;-85
2022/02/19 01:39:01;;;;;;;70.90;7.63;;;6.80;34.20;;;;;;4884915;29;20312;-86
2022/02/19 01:41:40;;;;;;;68.65;8.05;;;6.80;34.20;;;;;;4885016;29;20193;-86
2022/02/19 01:44:28;;;;;;;69.10;9.20;;;6.70;37.70;;;;;;4885125;29;20150;-85
2022/02/19 01:46:59;;;;;;;70.78;7.50;;;6.70;37.50;;;;;;4883807;29;20187;-85
2022/02/19 01:49:31;;;;;;;71.03;9.77;;;6.70;40.20;;;;;;4884861;29;20199;-85
2022/02/19 01:52:09;;;;;;;74.93;11.30;;;6.70;41.10;;;;;;4884178;29;20231;-85
2022/02/19 01:54:49;;;;;;;70.82;9.70;;;6.70;43.30;;;;;;4883676;29;20194;-85
2022/02/19 01:57:18;;;;;;;71.38;9.13;;;6.60;46.70;;;;;;4884271;29;20232;-85
2022/02/19 01:59:49;;;;;;;73.60;22.38;;;6.60;46.80;;;;;;4883831;29;20167;-84
2022/02/19 02:02:29;;;;;;;74.05;16.85;;;6.60;55.70;;;;;;4882511;29;20177;-84
2022/02/19 02:04:55;;;;;;;80.43;16.35;;;6.50;68.10;;;;;;4882534;29;20162;-84
2022/02/19 02:07:28;;;;;;;69.47;8.10;;;6.50;77.20;;;;;;4883079;29;20178;-86
2022/02/19 02:09:59;;;;;;;75.60;21.77;;;6.40;83.10;;;;;;4883732;29;20182;-85
2022/02/19 02:12:25;;;;;;;71.82;8.70;;;6.30;72.80;;;;;;4884312;29;20235;-85
2022/02/19 02:14:51;;;;;;;71.57;14.97;;;6.30;80.00;;;;;;4885489;29;20659;-85
2022/02/19 02:17:17;;;;;;;70.97;12.30;;;6.30;83.10;;;;;;4884710;29;20250;-86
2022/02/19 02:19:45;;;;;;;73.50;10.80;;;6.30;76.50;;;;;;4883868;29;20179;-84
2022/02/19 02:22:14;;;;;;;76.07;9.40;;;6.30;76.80;;;;;;4885526;29;20458;-86
2022/02/19 02:24:40;;;;;;;79.93;19.92;;;6.30;78.00;;;;;;4883160;29;20607;-85
2022/02/19 02:27:12;;;;;;;87.30;36.63;;;6.30;74.70;;;;;;4883036;29;20201;-86
2022/02/19 02:29:45;;;;;;;69.63;15.52;;;6.30;71.90;;;;;;4883286;29;20958;-86
2022/02/19 02:32:10;;;;;;;77.65;21.40;;;6.30;75.70;;;;;;4884300;29;20175;-85
2022/02/19 02:34:54;;;;;;;76.57;19.30;;;6.30;76.10;;;;;;4884302;29;20229;-85
2022/02/19 02:37:20;;;;;;;70.32;13.10;;;6.30;77.60;;;;;;4883880;29;20398;-85
2022/02/19 02:39:48;;;;;;;76.47;23.27;;;6.20;78.40;;;;;;4882067;29;20226;-85
2022/02/19 02:42:15;;;;;;;73.90;16.10;;;6.20;78.10;;;;;;4883687;29;20183;-85
2022/02/19 02:44:41;;;;;;;83.25;21.30;;;6.20;81.40;;;;;;4884077;29;20186;-85
2022/02/19 02:47:09;;;;;;;80.80;25.58;;;6.20;78.90;;;;;;4883177;29;20187;-85
2022/02/19 02:49:38;;;;;;;75.13;16.85;;;6.20;76.00;;;;;;4884181;29;20179;-85
2022/02/19 02:52:05;;;;;;;72.57;19.13;;;6.20;78.10;;;;;;4884257;29;20171;-86
2022/02/19 02:54:31;;;;;;;72.28;12.88;;;6.20;73.30;;;;;;4883071;29;20206;-86
2022/02/19 02:56:57;;;;;;;72.63;10.10;;;6.20;73.40;;;;;;4883586;29;20198;-86
2022/02/19 02:59:25;;;;;;;67.87;8.73;;;6.20;78.60;;;;;;4884116;29;20414;-86
2022/02/19 03:01:51;;;;;;;73.28;9.95;;;6.20;68.90;;;;;;4884743;29;20512;-86
2022/02/19 03:04:16;;;;;;;69.93;9.90;;;6.20;69.30;;;;;;4884902;29;20238;-85
2022/02/19 03:06:42;;;;;;;74.30;6.80;;;6.20;57.50;;;;;;4883879;29;20201;-85
2022/02/19 03:09:08;;;;;;;67.80;7.20;;;6.20;59.70;;;;;;4884440;29;20178;-85
2022/02/19 03:11:35;;;;;;;66.40;7.60;;;6.10;62.10;;;;;;4884909;29;20411;-85
2022/02/19 03:14:02;;;;;;;70.90;9.68;;;6.20;58.80;;;;;;4883583;29;20265;-85
2022/02/19 03:16:28;;;;;;;67.50;5.95;;;6.20;61.70;;;;;;4886219;29;20191;-85
2022/02/19 03:18:54;;;;;;;67.68;6.82;;;6.30;58.80;;;;;;4888017;29;20647;-86
2022/02/19 03:21:20;;;;;;;82.30;6.43;;;6.20;56.50;;;;;;4887881;29;20223;-85
2022/02/19 03:23:45;;;;;;;69.17;8.60;;;6.20;60.00;;;;;;4886935;29;20170;-85
2022/02/19 03:26:11;;;;;;;68.27;7.63;;;6.20;59.60;;;;;;4886223;29;20431;-86
2022/02/19 03:28:37;;;;;;;66.13;6.77;;;6.20;57.40;;;;;;4885141;29;20199;-86
2022/02/19 03:31:03;;;;;;;70.22;6.57;;;6.20;55.50;;;;;;4887190;29;20501;-85
2022/02/19 03:33:29;;;;;;;67.57;9.43;;;6.20;48.70;;;;;;4887124;29;20307;-84
2022/02/19 03:35:54;;;;;;;76.00;18.77;;;6.20;47.90;;;;;;4886283;29;20289;-85
2022/02/19 03:38:23;;;;;;;80.87;12.53;;;6.20;37.20;;;;;;4887687;29;20170;-86
2022/02/19 03:40:49;;;;;;;75.70;20.63;;;6.20;37.10;;;;;;4888593;29;20178;-86
2022/02/19 03:43:14;;;;;;;93.10;43.00;;;6.20;35.40;;;;;;4886488;29;20170;-85
2022/02/19 03:45:43;;;;;;;67.17;7.77;;;6.10;26.40;;;;;;4886934;29;20604;-85
2022/02/19 03:48:10;;;;;;;66.43;7.68;;;6.20;23.90;;;;;;4887237;29;20436;-85
2022/02/19 03:50:36;;;;;;;67.28;9.15;;;6.10;25.40;;;;;;4886277;29;20174;-85
2022/02/19 03:53:02;;;;;;;65.93;7.30;;;6.10;26.30;;;;;;4886180;29;20663;-85
2022/02/19 03:55:28;;;;;;;67.25;8.40;;;6.20;26.50;;;;;;4886581;29;20596;-86
2022/02/19 03:57:53;;;;;;;69.73;8.77;;;6.10;24.80;;;;;;4885164;29;20315;-85
2022/02/19 04:00:19;;;;;;;69.77;8.20;;;6.10;26.10;;;;;;4886250;29;20167;-85
2022/02/19 04:02:45;;;;;;;66.97;8.35;;;6.10;28.30;;;;;;4885563;29;20170;-85
2022/02/19 04:05:13;;;;;;;67.77;8.00;;;6.10;26.80;;;;;;4885970;29;20215;-86
2022/02/19 04:07:39;;;;;;;66.55;7.90;;;6.00;24.70;;;;;;4886468;29;20186;-85
2022/02/19 04:10:06;;;;;;;74.97;8.05;;;6.00;24.00;;;;;;4884328;29;20171;-86
2022/02/19 04:12:32;;;;;;;66.25;7.85;;;6.00;25.60;;;;;;4884915;29;20538;-85
2022/02/19 04:14:58;;;;;;;68.53;7.90;;;6.00;25.60;;;;;;4884758;29;20199;-85
2022/02/19 04:17:24;;;;;;;66.27;7.13;;;6.00;25.40;;;;;;4885526;29;20163;-85
2022/02/19 04:19:50;;;;;;;67.72;7.75;;;6.00;24.20;;;;;;4884857;29;20174;-85
2022/02/19 04:22:19;;;;;;;67.40;7.63;;;6.00;24.20;;;;;;4885377;29;20163;-85
2022/02/19 04:24:46;;;;;;;70.18;7.63;;;6.00;25.00;;;;;;4885196;29;20171;-85
2022/02/19 04:27:13;;;;;;;68.35;6.97;;;6.00;23.90;;;;;;4883027;29;20217;-86
2022/02/19 04:29:42;;;;;;;65.75;6.80;;;6.00;23.10;;;;;;4885757;29;20270;-86
2022/02/19 04:32:08;;;;;;;67.57;6.13;;;6.00;25.70;;;;;;4885852;29;20262;-86
2022/02/19 04:34:34;;;;;;;71.60;11.77;;;6.00;27.00;;;;;;4885809;29;20186;-85
2022/02/19 04:37:00;;;;;;;71.38;10.35;;;6.00;27.40;;;;;;4884759;29;20194;-86
2022/02/19 04:39:28;;;;;;;68.80;7.60;;;6.00;25.50;;;;;;4885019;29;20214;-85
2022/02/19 04:41:54;;;;;;;68.57;8.85;;;6.00;27.40;;;;;;4885604;29;20202;-85
2022/02/19 04:44:20;;;;;;;69.37;8.40;;;6.00;29.60;;;;;;4884189;29;20542;-84
2022/02/19 04:46:45;;;;;;;68.70;8.33;;;6.00;28.40;;;;;;4883916;29;20194;-86
2022/02/19 04:49:11;;;;;;;68.60;7.13;;;6.00;30.30;;;;;;4883807;29;20183;-86
2022/02/19 04:51:38;;;;;;;68.00;6.90;;;6.00;31.40;;;;;;4883855;29;20206;-85
2022/02/19 04:54:04;;;;;;;75.25;8.25;;;6.00;32.10;;;;;;4884678;29;20285;-86
2022/02/19 04:56:31;;;;;;;69.82;7.38;;;5.90;32.10;;;;;;4884566;29;20209;-85
2022/02/19 04:58:57;;;;;;;70.63;8.48;;;5.90;28.70;;;;;;4884477;29;20171;-85
2022/02/19 05:01:23;;;;;;;73.20;9.00;;;6.00;31.10;;;;;;4882466;29;20197;-85
2022/02/19 05:03:48;;;;;;;70.07;9.37;;;6.00;28.70;;;;;;4883527;29;20173;-84
2022/02/19 05:06:14;;;;;;;68.83;7.67;;;5.90;28.30;;;;;;4882894;29;20447;-85
2022/02/19 05:08:41;;;;;;;67.90;8.80;;;5.90;31.00;;;;;;4884416;29;20250;-85
2022/02/19 05:11:07;;;;;;;69.47;7.72;;;5.80;32.20;;;;;;4884075;29;20167;-86
2022/02/19 05:13:32;;;;;;;70.10;8.40;;;5.80;32.00;;;;;;4882288;29;20167;-84
2022/02/19 05:15:58;;;;;;;72.83;8.17;;;5.80;29.40;;;;;;4882939;29;20462;-86
2022/02/19 05:18:23;;;;;;;105.23;17.37;;;5.80;30.60;;;;;;4882064;29;20170;-85
2022/02/19 05:20:49;;;;;;;72.20;10.37;;;5.70;29.10;;;;;;4882626;29;20655;-86
2022/02/19 05:23:15;;;;;;;73.30;8.47;;;5.70;30.80;;;;;;4882295;29;20239;-86
2022/02/19 05:25:45;;;;;;;74.03;8.33;;;5.70;28.30;;;;;;4883850;29;20190;-85
2022/02/19 05:28:10;;;;;;;69.18;9.77;;;5.70;28.20;;;;;;4883633;29;20183;-85
2022/02/19 05:30:36;;;;;;;67.50;7.00;;;5.70;28.10;;;;;;4883668;29;20655;-85
2022/02/19 05:33:02;;;;;;;75.00;7.97;;;5.60;29.30;;;;;;4882537;29;20181;-86
2022/02/19 05:35:31;;;;;;;68.05;8.55;;;5.60;31.00;;;;;;4883196;29;20202;-85
2022/02/19 05:37:57;;;;;;;73.63;7.07;;;5.60;30.00;;;;;;4883220;29;20170;-85
2022/02/19 05:40:23;;;;;;;68.93;8.30;;;5.60;29.80;;;;;;4883241;29;20237;-86
2022/02/19 05:42:48;;;;;;;70.13;8.57;;;5.60;29.90;;;;;;4881502;29;20178;-85
2022/02/19 05:45:14;;;;;;;71.20;10.30;;;5.60;30.80;;;;;;4881809;29;20443;-86
2022/02/19 05:47:40;;;;;;;68.60;7.67;;;5.60;28.30;;;;;;4883888;29;20246;-85
2022/02/19 05:50:06;;;;;;;68.77;8.57;;;5.50;28.40;;;;;;4883063;29;20167;-85
2022/02/19 05:52:32;;;;;;;67.70;10.38;;;5.60;29.90;;;;;;4882004;29;20185;-85
2022/02/19 05:55:00;;;;;;;74.47;9.57;;;5.50;29.60;;;;;;4881634;29;20202;-85
2022/02/19 05:57:31;;;;;;;68.95;8.20;;;5.50;32.30;;;;;;4883134;29;20189;-85
2022/02/19 05:59:57;;;;;;;70.10;6.97;;;5.50;33.20;;;;;;4882049;29;20159;-86
2022/02/19 06:02:22;;;;;;;69.37;8.97;;;5.50;35.40;;;;;;4881658;29;20199;-86
2022/02/19 06:04:48;;;;;;;70.30;9.43;;;5.40;36.50;;;;;;4882463;29;20174;-85
2022/02/19 06:07:13;;;;;;;72.27;7.13;;;5.50;36.20;;;;;;4883344;29;20213;-85
2022/02/19 06:09:39;;;;;;;73.77;10.77;;;5.40;36.60;;;;;;4882971;29;20187;-85
2022/02/19 06:12:05;;;;;;;78.77;9.20;;;5.40;39.60;;;;;;4881951;29;20178;-86
2022/02/19 06:14:31;;;;;;;70.30;12.90;;;5.40;40.90;;;;;;4883354;29;20258;-85
2022/02/19 06:16:57;;;;;;;69.97;9.80;;;5.40;41.30;;;;;;4866562;29;20190;-85
2022/02/19 06:19:25;;;;;;;68.67;9.70;;;5.40;42.60;;;;;;4881461;29;20170;-86
2022/02/19 06:21:50;;;;;;;73.25;13.02;;;5.40;42.50;;;;;;4881848;29;20638;-85
2022/02/19 06:24:16;;;;;;;70.77;11.23;;;5.40;44.50;;;;;;4882793;29;20171;-86
2022/02/19 06:26:42;;;;;;;69.17;7.30;;;5.40;46.20;;;;;;4881783;29;20654;-85
2022/02/19 06:29:07;;;;;;;69.47;9.60;;;5.40;46.90;;;;;;4883660;29;20206;-86
2022/02/19 06:31:33;;;;;;;70.87;7.63;;;5.40;48.10;;;;;;4883697;29;20174;-85
2022/02/19 06:33:59;;;;;;;71.33;8.43;;;5.40;50.80;;;;;;4883235;29;20225;-85
2022/02/19 06:36:24;;;;;;;68.57;6.83;;;5.40;51.10;;;;;;4882734;29;20186;-85
2022/02/19 06:38:50;;;;;;;69.93;7.53;;;5.30;53.30;;;;;;4881861;29;20175;-86
2022/02/19 06:41:16;;;;;;;78.40;21.40;;;5.30;52.40;;;;;;4882555;29;20175;-85
2022/02/19 06:43:41;;;;;;;71.00;7.60;;;5.40;52.70;;;;;;4883691;29;20238;-85
2022/02/19 06:46:07;;;;;;;74.83;8.93;;;5.40;51.40;;;;;;4882409;29;20243;-85
2022/02/19 06:48:33;;;;;;;70.93;8.63;;;5.40;51.10;;;;;;4882952;29;20611;-85
2022/02/19 06:50:58;;;;;;;77.90;9.90;;;5.40;50.90;;;;;;4887056;29;20194;-86
2022/02/19 06:53:25;;;;;;;71.20;9.13;;;5.40;49.10;;;;;;4885947;29;20419;-85
2022/02/19 06:55:51;;;;;;;69.20;8.15;;;5.40;48.90;;;;;;4886528;29;20233;-86
2022/02/19 06:58:17;;;;;;;71.60;8.33;;;5.40;49.60;;;;;;4885368;29;20183;-85
2022/02/19 07:00:42;;;;;;;71.20;9.70;;;5.40;50.40;;;;;;4885557;29;20171;-85
2022/02/19 07:03:08;;;;;;;73.77;8.73;;;5.40;48.50;;;;;;4885779;29;20174;-85
2022/02/19 07:05:34;;;;;;;69.40;9.43;;;5.40;46.80;;;;;;4886105;29;20289;-86
2022/02/19 07:07:59;;;;;;;71.57;9.03;;;5.40;48.30;;;;;;4885569;29;20214;-85
2022/02/19 07:10:27;;;;;;;76.00;10.60;;;5.40;47.90;;;;;;4885675;29;20178;-85
2022/02/19 07:12:56;;;;;;;70.93;11.60;;;5.40;49.00;;;;;;4884971;29;20419;-85
2022/02/19 07:15:22;;;;;;;71.15;10.68;;;5.40;46.80;;;;;;4886292;29;20206;-85
2022/02/19 07:17:52;;;;;;;71.80;10.97;;;5.50;46.90;;;;;;4884662;29;20155;-86
2022/02/19 07:20:22;;;;;;;78.20;9.70;;;5.50;47.90;;;;;;4883739;29;20242;-86
2022/02/19 07:22:51;;;;;;;72.72;10.98;;;5.50;46.30;;;;;;4884338;29;20170;-86
2022/02/19 07:25:18;;;;;;;71.55;8.38;;;5.50;47.00;;;;;;4885235;29;20253;-85
2022/02/19 07:27:46;;;;;;;68.75;9.00;;;5.50;45.00;;;;;;4883424;29;20185;-84
2022/02/19 07:30:19;;;;;;;67.95;7.72;;;5.60;46.60;;;;;;4883183;29;20250;-86
2022/02/19 07:32:48;;;;;;;70.13;10.65;;;5.60;46.70;;;;;;4885077;29;20181;-86
2022/02/19 07:35:14;;;;;;;73.28;14.50;;;5.60;46.50;;;;;;4884028;29;20300;-85
2022/02/19 07:37:40;;;;;;;75.82;20.02;;;5.60;44.90;;;;;;4884751;29;20174;-86
2022/02/19 07:40:07;;;;;;;70.77;8.60;;;5.60;46.20;;;;;;4884679;29;20167;-85
2022/02/19 07:42:33;;;;;;;83.75;11.02;;;5.60;44.70;;;;;;4885828;29;20824;-86
2022/02/19 07:44:59;;;;;;;73.78;14.55;;;5.60;48.60;;;;;;4885643;29;20707;-85
2022/02/19 07:47:27;;;;;;;73.67;11.93;;;5.70;45.80;;;;;;4886142;29;20171;-85
2022/02/19 07:58:26;;;;;;;77.35;10.25;;;5.70;46.60;;;;;;4884615;29;20246;-85
2022/02/19 08:00:53;;;;;;;81.15;18.95;;;5.80;46.70;;;;;;4882866;29;20223;-84
2022/02/19 08:03:23;;;;;;;72.90;13.38;;;5.80;43.80;;;;;;4885031;29;20177;-85
2022/02/19 08:05:49;;;;;;;71.55;12.05;;;5.80;42.90;;;;;;4886521;29;20194;-86
2022/02/19 08:08:16;;;;;;;74.93;11.60;;;5.80;44.60;;;;;;4885886;29;20209;-86
2022/02/19 08:10:48;;;;;;;70.30;10.18;;;5.90;44.80;;;;;;4885068;29;20623;-86
2022/02/19 08:13:16;;;;;;;69.85;10.98;;;5.90;41.90;;;;;;4884050;29;20186;-85
2022/02/19 08:15:43;;;;;;;81.80;11.02;;;5.90;41.60;;;;;;4884772;29;20206;-85
2022/02/19 08:18:10;;;;;;;75.35;10.13;;;6.00;45.10;;;;;;4886451;29;20230;-86
2022/02/19 08:20:38;;;;;;;75.78;9.93;;;6.00;45.60;;;;;;4885213;29;20166;-85
2022/02/19 08:23:06;;;;;;;72.07;10.27;;;6.10;44.60;;;;;;4886390;29;20537;-86
2022/02/19 08:25:33;;;;;;;70.22;12.00;;;6.10;42.40;;;;;;4886031;29;20282;-85
2022/02/19 08:27:59;;;;;;;73.20;11.85;;;6.10;45.60;;;;;;4884713;29;20205;-86
2022/02/19 08:30:25;;;;;;;72.17;11.73;;;6.20;43.90;;;;;;4885674;29;20257;-86
2022/02/19 08:32:51;;;;;;;68.82;10.85;;;6.30;47.50;;;;;;4882821;29;20794;-86
2022/02/19 08:35:20;;;;;;;70.57;11.90;;;6.30;46.10;;;;;;4883330;29;20279;-85
2022/02/19 08:37:45;;;;;;;71.35;12.27;;;6.30;47.00;;;;;;4882950;29;20174;-87
2022/02/19 08:40:14;;;;;;;67.90;12.70;;;6.40;47.30;;;;;;4882767;29;20173;-86
2022/02/19 08:42:41;;;;;;;74.22;11.68;;;6.40;42.00;;;;;;4882401;29;20174;-86
2022/02/19 08:45:08;;;;;;;74.40;10.80;;;6.50;45.20;;;;;;4883616;29;20671;-85
2022/02/19 08:47:34;;;;;;;73.28;11.27;;;6.50;50.90;;;;;;4884312;29;20528;-86
2022/02/19 08:50:04;;;;;;;71.15;12.93;;;6.60;50.20;;;;;;4884169;29;20225;-86
2022/02/19 08:52:31;;;;;;;71.53;12.15;;;6.60;51.10;;;;;;4883664;29;20257;-86
2022/02/19 08:54:59;;;;;;;69.22;11.95;;;6.70;49.30;;;;;;4897832;23;20675;-86
2022/02/19 09:00:34;;;;;;;75.40;11.27;;;6.80;45.30;;;;;;4864315;29;20544;-86
2022/02/19 09:03:02;;;;;;;72.97;10.05;;;6.80;46.90;;;;;;4864545;29;20200;-86
2022/02/19 09:05:28;;;;;;;75.18;9.07;;;6.90;44.40;;;;;;4864026;29;20255;-85
2022/02/19 09:07:57;;;;;;;68.50;9.57;;;6.90;43.80;;;;;;4863768;29;20202;-85
2022/02/19 09:10:28;;;;;;;76.07;10.18;;;6.90;42.00;;;;;;4862398;29;20448;-86
2022/02/19 09:12:59;;;;;;;69.35;7.85;;;6.90;45.70;;;;;;4861460;29;20164;-85
2022/02/19 09:15:26;;;;;;;68.60;9.13;;;6.90;44.60;;;;;;4862641;29;20249;-85
2022/02/19 09:17:52;;;;;;;69.53;8.48;;;6.90;45.10;;;;;;4862679;29;20208;-86
2022/02/19 09:20:21;;;;;;;70.68;8.60;;;6.90;41.10;;;;;;4864067;29;20164;-85
2022/02/19 09:22:47;;;;;;;72.10;8.48;;;6.90;31.40;;;;;;4863548;29;20183;-85
2022/02/19 09:25:13;;;;;;;66.97;8.03;;;6.90;31.90;;;;;;4863544;29;20194;-85
2022/02/19 09:27:43;;;;;;;67.80;7.65;;;7.00;33.40;;;;;;4864191;29;20423;-85
2022/02/19 09:30:10;;;;;;;69.72;8.18;;;7.00;31.90;;;;;;4864050;29;20221;-85
2022/02/19 09:32:42;;;;;;;75.10;6.97;;;7.10;36.20;;;;;;4862846;29;20322;-85
2022/02/19 09:35:12;;;;;;;73.80;6.97;;;7.10;34.50;;;;;;4862030;29;20707;-86
2022/02/19 09:37:39;;;;;;;67.80;6.72;;;7.20;35.80;;;;;;4862601;29;20258;-85
2022/02/19 09:40:09;;;;;;;71.85;7.72;;;7.30;39.70;;;;;;4862557;29;20167;-86
2022/02/19 09:42:39;;;;;;;79.07;7.80;;;7.30;34.60;;;;;;4863132;29;20251;-85
2022/02/19 09:45:07;;;;;;;70.82;8.45;;;7.30;37.70;;;;;;4862016;29;20175;-85
2022/02/19 09:47:39;;;;;;;69.55;7.97;;;7.30;35.70;;;;;;4862082;29;20648;-86
2022/02/19 09:50:10;;;;;;;70.43;7.43;;;7.40;31.90;;;;;;4863896;29;20627;-85
2022/02/19 09:52:44;;;;;;;73.57;7.80;;;7.40;32.80;;;;;;4862776;29;20229;-85
2022/02/19 09:55:10;;;;;;;69.78;8.85;;;7.60;35.40;;;;;;4862479;29;20732;-86
2022/02/19 09:57:36;;;;;;;66.57;7.93;;;7.70;36.10;;;;;;4862427;29;20171;-85
2022/02/19 10:00:06;;;;;;;69.40;8.70;;;7.80;29.40;;;;;;4863827;29;20172;-85
2022/02/19 10:02:33;;;;;;;72.03;7.70;;;7.80;37.60;;;;;;4862330;29;20420;-85
2022/02/19 10:05:22;;;;;;;67.68;8.05;;;7.90;38.30;;;;;;4862174;29;20664;-85
2022/02/19 10:08:14;;;;;;;69.03;8.90;;;8.10;34.80;;;;;;4862906;29;20199;-85
2022/02/19 10:10:48;;;;;;;75.45;8.63;;;8.10;28.60;;;;;;4849249;29;20191;-85
2022/02/19 10:13:40;;;;;;;68.20;9.75;;;8.20;29.10;;;;;;4862056;29;20179;-85
2022/02/19 10:16:07;;;;;;;66.97;6.53;;;8.30;24.30;;;;;;4863152;29;20199;-85
2022/02/19 10:18:39;;;;;;;68.72;6.75;;;8.30;26.30;;;;;;4862194;29;20210;-85
2022/02/19 10:21:13;;;;;;;67.32;5.72;;;8.30;24.00;;;;;;4862195;29;20736;-86
2022/02/19 10:23:46;;;;;;;69.75;5.05;;;8.40;24.90;;;;;;4863924;29;20194;-85
2022/02/19 10:26:15;;;;;;;67.05;5.22;;;8.60;25.40;;;;;;4867173;29;20183;-85
2022/02/19 10:29:03;;;;;;;67.93;5.75;;;8.60;24.00;;;;;;4865978;29;20176;-85
2022/02/19 10:31:35;;;;;;;65.90;5.85;;;8.70;20.40;;;;;;4866782;29;20668;-85
2022/02/19 10:34:08;;;;;;;67.80;6.10;;;8.70;19.60;;;;;;4866748;29;20344;-85
2022/02/19 10:36:50;;;;;;;65.00;4.80;;;8.70;6.50;;;;;;4866488;29;20191;-85
2022/02/19 10:39:36;;;;;;;69.50;6.10;;;8.70;8.00;;;;;;4866898;29;20156;-85
2022/02/19 10:42:12;;;;;;;68.20;4.80;;;8.70;9.00;;;;;;4866868;29;20186;-85
2022/02/19 10:44:47;;;;;;;65.03;5.03;;;8.70;1.00;;;;;;4867185;29;20612;-86
2022/02/19 10:47:25;;;;;;;65.32;4.95;;;8.60;1.00;;;;;;4865665;29;20165;-85
2022/02/19 10:50:12;;;;;;;69.20;5.35;;;8.60;1.00;;;;;;4866703;29;20203;-85
2022/02/19 10:52:41;;;;;;;66.35;8.07;;;8.80;1.00;;;;;;4865526;29;20167;-85
2022/02/19 10:55:10;;;;;;;67.60;9.45;;;8.80;1.00;;;;;;4864641;29;20222;-85
2022/02/19 10:57:41;;;;;;;69.78;9.90;;;8.80;1.00;;;;;;4864938;29;20159;-85
2022/02/19 11:00:22;;;;;;;68.00;8.57;;;8.80;1.00;;;;;;4865736;29;20544;-85
2022/02/19 11:02:49;;;;;;;66.30;8.77;;;8.90;1.00;;;;;;4867414;29;20604;-85
2022/02/19 11:05:16;;;;;;;66.55;10.35;;;8.80;1.00;;;;;;4865143;29;20250;-85
2022/02/19 11:07:44;;;;;;;64.97;8.98;;;8.80;1.00;;;;;;4865247;29;20176;-85
2022/02/19 11:10:12;;;;;;;71.60;9.32;;;8.80;1.00;;;;;;4865173;29;20556;-85
2022/02/19 11:12:38;;;;;;;65.20;7.30;;;8.80;1.00;;;;;;4866062;29;20175;-85
2022/02/19 11:15:08;;;;;;;70.77;9.47;;;8.80;1.00;;;;;;4866004;29;20343;-85
2022/02/19 11:17:35;;;;;;;66.30;7.10;;;8.90;1.00;;;;;;4865573;29;20416;-85
2022/02/19 11:20:12;;;;;;;68.05;7.68;;;8.90;1.00;;;;;;4865919;29;20179;-85
2022/02/19 11:22:39;;;;;;;71.50;8.38;;;8.90;1.00;;;;;;4866324;29;20167;-86
2022/02/19 11:25:13;;;;;;;68.78;8.32;;;8.90;1.00;;;;;;4866648;29;20589;-84
2022/02/19 11:27:50;;;;;;;66.28;7.00;;;9.10;1.00;;;;;;4866951;29;20156;-85
2022/02/19 11:30:18;;;;;;;66.28;9.20;;;9.20;1.00;;;;;;4866765;29;20171;-85
2022/02/19 11:32:45;;;;;;;64.80;5.90;;;9.30;1.00;;;;;;4866687;29;20175;-84
2022/02/19 11:35:10;;;;;;;65.97;7.53;;;9.40;1.00;;;;;;4863973;29;20211;-85
2022/02/19 11:37:43;;;;;;;72.20;20.93;;;9.50;1.00;;;;;;4866516;29;20231;-85
2022/02/19 11:40:11;;;;;;;72.85;24.27;;;9.50;1.00;;;;;;4864998;29;20465;-85
2022/02/19 11:42:49;;;;;;;71.72;26.25;;;9.60;1.00;;;;;;4864952;29;20524;-86
2022/02/19 11:45:21;;;;;;;67.70;13.80;;;9.60;1.00;;;;;;4864948;29;20224;-86
2022/02/19 11:47:49;;;;;;;73.95;20.98;;;9.70;1.00;;;;;;4865527;29;20175;-86
2022/02/19 11:50:26;;;;;;;71.10;24.02;;;9.60;1.00;;;;;;4864367;29;20182;-85
2022/02/19 11:53:10;;;;;;;67.85;16.90;;;9.60;1.00;;;;;;4863970;29;20178;-85
2022/02/19 11:55:44;;;;;;;71.95;22.27;;;9.20;1.00;;;;;;4865152;29;20207;-86
2022/02/19 11:58:30;;;;;;;73.07;20.35;;;9.10;1.00;;;;;;4863382;29;20555;-86
2022/02/19 12:01:09;;;;;;;68.70;16.83;;;9.00;1.00;;;;;;4864956;29;20152;-85
2022/02/19 12:03:34;;;;;;;66.43;10.52;;;8.90;1.00;;;;;;4864143;29;20164;-85
2022/02/19 12:06:25;;;;;;;70.30;17.40;;;8.80;1.00;;;;;;4862823;29;20286;-85
2022/02/19 12:08:53;;;;;;;67.78;13.95;;;8.90;1.00;;;;;;4864333;29;20788;-86
2022/02/19 12:11:23;;;;;;;73.75;24.42;;;9.10;1.00;;;;;;4864594;29;20179;-86
2022/02/19 12:13:53;;;;;;;72.45;27.25;;;9.30;1.00;;;;;;4864841;29;20226;-85
2022/02/19 12:19:00;;;;;;;74.03;29.17;;;9.70;1.00;;;;;;4864857;29;20167;-85
2022/02/19 12:21:46;;;;;;;72.85;24.75;;;9.60;1.00;;;;;;4864834;29;20644;-85
2022/02/19 12:24:19;;;;;;;74.93;19.95;;;9.80;1.00;;;;;;4863073;29;20171;-85
2022/02/19 12:26:57;;;;;;;75.53;31.13;;;10.10;1.00;;;;;;4863226;29;20199;-85
2022/02/19 12:29:38;;;;;;;69.65;16.55;;;10.20;1.00;;;;;;4862577;29;20235;-85
2022/02/19 12:32:18;;;;;;;68.88;9.85;;;10.30;1.00;;;;;;4862443;29;20175;-85
2022/02/19 12:34:56;;;;;;;67.45;6.70;;;10.30;1.00;;;;;;4861946;29;20567;-85
2022/02/19 12:37:22;;;;;;;73.05;15.48;;;10.40;1.00;;;;;;4861678;29;20209;-86
2022/02/19 12:39:51;;;;;;;65.70;7.47;;;10.40;1.00;;;;;;4863560;29;20164;-85
2022/02/19 12:42:22;;;;;;;72.90;21.13;;;10.30;1.00;;;;;;4861534;29;20262;-85
2022/02/19 12:45:05;;;;;;;70.70;22.33;;;10.10;1.00;;;;;;4863139;29;20541;-85
2022/02/19 12:47:34;;;;;;;70.43;16.45;;;9.90;1.00;;;;;;4863358;29;20211;-85
2022/02/19 12:50:01;;;;;;;71.13;14.15;;;9.70;1.00;;;;;;4862203;29;20203;-85
2022/02/19 12:52:27;;;;;;;64.68;7.40;;;9.60;1.00;;;;;;4864213;29;20171;-85
2022/02/19 12:54:53;;;;;;;67.10;6.78;;;9.30;1.00;;;;;;4823716;29;1159972;-85
2022/02/19 12:57:21;;;;;;;67.67;11.10;;;9.30;1.00;;;;;;4864373;29;20173;-86
2022/02/19 12:59:51;;;;;;;74.78;27.30;;;9.10;1.00;;;;;;4849274;29;20420;-86
2022/02/19 13:02:25;;;;;;;73.28;25.85;;;9.00;1.00;;;;;;4863775;29;20160;-85
2022/02/19 13:04:59;;;;;;;75.25;15.88;;;8.90;1.00;;;;;;4864502;29;20191;-85
2022/02/19 13:07:25;;;;;;;66.05;7.55;;;8.80;1.00;;;;;;4865340;29;20163;-86
2022/02/19 13:09:55;;;;;;;72.28;8.25;;;8.90;1.00;;;;;;4864607;29;20667;-85
2022/02/19 13:12:40;;;;;;;66.05;8.23;;;8.90;1.00;;;;;;4865273;29;20167;-85